Flight Track Log - Related Links

Times and Time Zones

All times are in EDT time to prevent confusion due to time zone crossing. See the DAL1016 flight status page for this flight to view local times or setup timezone preferences in your user account.


Time Position Orientation Groundspeed Altitude Reporting Facility
EDT Latitude Longitude Course Direction KTS MPH feet Rate Location/Type
Sun 05:29:16 PM 36.0750 -115.1861 268° West 201 231 3,200  Level Los Angeles Center
Sun 05:30:05 PM 36.0733 -115.2425 318° Northwest 214 246 4,600 1,745 Climbing Los Angeles Center
Sun 05:31:06 PM 36.1217 -115.2961 34° Northeast 257 296 6,400 1,884 Climbing Los Angeles Center
Sun 05:32:06 PM 36.1756 -115.2517 70° East 267 307 8,400 1,663 Climbing Los Angeles Center
Sun 05:32:47 PM 36.1917 -115.1975 86° East 281 323 9,200 1,426 Climbing Los Angeles Center
Sun 05:33:47 PM 36.1972 -115.0894 88° East 291 335 10,800 1,500 Climbing Los Angeles Center
Sun 05:34:47 PM 36.2003 -114.9606 90° East 333 383 12,200 1,600 Climbing Los Angeles Center
Sun 05:35:47 PM 36.2008 -114.8242 91° East 368 423 14,000 900 Climbing Los Angeles Center
Sun 05:36:47 PM 36.1994 -114.6878 91° East 384 442 14,000 750 Level Los Angeles Center
Sun 05:37:47 PM 36.1978 -114.5542 90° East 390 449 15,500 1,750 Climbing Los Angeles Center
Sun 05:38:47 PM 36.1981 -114.4125 92° East 396 456 17,500 2,050 Climbing Los Angeles Center
Sun 05:39:47 PM 36.1936 -114.2658 83° East 408 470 19,600 2,000 Climbing Los Angeles Center
Sun 05:40:47 PM 36.2081 -114.1189 81° East 419 482 21,500 1,800 Climbing Los Angeles Center
Sun 05:41:47 PM 36.2264 -113.9667 81° East 432 497 23,200 1,750 Climbing Los Angeles Center
Sun 05:42:47 PM 36.2444 -113.8167 81° East 437 503 25,000 1,550 Climbing Los Angeles Center
Sun 05:43:47 PM 36.2644 -113.6642 82° East 442 509 26,300 1,200 Climbing Los Angeles Center
Sun 05:44:47 PM 36.2819 -113.5067 82° East 448 516 27,400 1,200 Climbing Los Angeles Center
Sun 05:45:47 PM 36.2992 -113.3436 78° East 459 528 28,700 1,400 Climbing Los Angeles Center
Sun 05:46:47 PM 36.3269 -113.1856 66° East 469 540 30,200 1,350 Climbing Los Angeles Center
Sun 05:47:47 PM 36.3797 -113.0392 66° East 464 534 31,400 1,200 Climbing Los Angeles Center
Sun 05:48:47 PM 36.4342 -112.8900 65° Northeast 464 534 32,600 1,150 Climbing Los Angeles Center
Sun 05:49:47 PM 36.4964 -112.7272 66° East 464 534 33,700 762 Climbing Los Angeles Center
Sun 05:51:56 PM 36.6089 -112.4117 66° East 484 557 35,000 413 Climbing Denver Center
Sun 05:52:56 PM 36.6625 -112.2636 65° Northeast 478 550 35,000  Level Denver Center
Sun 05:53:56 PM 36.7108 -112.1328 66° East 467 537 35,000  Level Denver Center
Sun 05:54:56 PM 36.7642 -111.9839 65° Northeast 467 537 35,000  Level Denver Center
Sun 05:55:56 PM 36.8192 -111.8353 66° East 467 537 35,000  Level Denver Center
Sun 05:56:56 PM 36.8719 -111.6886 66° East 467 537 35,000  Level Denver Center
Sun 05:57:56 PM 36.9247 -111.5367 67° East 467 537 35,000  Level Denver Center
Sun 05:58:56 PM 36.9750 -111.3894 66° East 467 537 35,000  Level Denver Center
Sun 05:59:56 PM 37.0292 -111.2397 67° East 467 537 35,000  Level Denver Center
Sun 06:00:56 PM 37.0839 -111.0794 67° East 467 537 35,000  Level Denver Center
Sun 06:01:56 PM 37.1356 -110.9292 66° East 467 537 35,000  Level Denver Center
Sun 06:02:56 PM 37.1872 -110.7811 66° East 467 537 35,000  Level Denver Center
Sun 06:03:56 PM 37.2408 -110.6278 66° East 467 537 35,000  Level Denver Center
Sun 06:04:56 PM 37.2942 -110.4769 67° East 467 537 35,000  Level Denver Center
Sun 06:05:56 PM 37.3453 -110.3283 66° East 467 537 35,000  Level Denver Center
Sun 06:06:56 PM 37.3983 -110.1797 67° East 467 537 35,000  Level Denver Center
Sun 06:07:56 PM 37.4489 -110.0306 66° East 461 531 35,000  Level Denver Center
Sun 06:08:56 PM 37.5014 -109.8789 68° East 461 531 35,000  Level Denver Center
Sun 06:09:56 PM 37.5450 -109.7422 67° East 468 539 35,000  Level Denver Center
Sun 06:10:56 PM 37.6019 -109.5744 67° East 468 539 35,000  Level Denver Center
Sun 06:11:56 PM 37.6517 -109.4247 67° East 468 539 35,000  Level Denver Center
Sun 06:12:56 PM 37.7036 -109.2694 68° East 468 539 35,000  Level Denver Center
Sun 06:13:56 PM 37.7464 -109.1344 67° East 468 539 35,000  Level Denver Center
Sun 06:14:56 PM 37.8047 -108.9608 68° East 468 539 35,000  Level Denver Center
Sun 06:15:56 PM 37.8536 -108.8100 65° Northeast 468 539 35,000  Level Denver Center
Sun 06:16:56 PM 37.9089 -108.6592 67° East 468 539 35,000  Level Denver Center
Sun 06:17:56 PM 37.9553 -108.5211 66° East 474 545 35,000  Level Denver Center
Sun 06:18:56 PM 38.0078 -108.3697 67° East 474 545 35,000  Level Denver Center
Sun 06:19:56 PM 38.0647 -108.2025 68° East 474 545 35,000  Level Denver Center
Sun 06:20:56 PM 38.1061 -108.0689 66° East 468 539 35,000  Level Denver Center
Sun 06:21:56 PM 38.1647 -107.9014 68° East 468 539 35,000  Level Denver Center
Sun 06:22:56 PM 38.2144 -107.7464 66° East 468 539 35,000  Level Denver Center
Sun 06:23:56 PM 38.2661 -107.5967 67° East 475 547 35,000  Level Denver Center
Sun 06:24:56 PM 38.3133 -107.4547 67° East 475 547 35,000  Level Denver Center
Sun 06:25:56 PM 38.3689 -107.2858 68° East 475 547 35,000  Level Denver Center
Sun 06:26:56 PM 38.4178 -107.1328 69° East 475 547 35,000  Level Denver Center
Sun 06:27:56 PM 38.4603 -106.9900 74° East 475 547 35,000  Level Denver Center
Sun 06:28:56 PM 38.4964 -106.8286 75° East 470 541 35,000 50 Level Denver Center
Sun 06:29:56 PM 38.5344 -106.6456 75° East 470 541 35,100 500 Climbing Denver Center
Sun 06:30:56 PM 38.5678 -106.4811 75° East 470 541 36,000 850 Climbing Denver Center
Sun 06:31:56 PM 38.5969 -106.3375 76° East 470 541 36,800 500 Climbing Denver Center
Sun 06:32:56 PM 38.6300 -106.1728 76° East 470 541 37,000 100 Climbing Denver Center
Sun 06:33:56 PM 38.6628 -106.0053 75° East 475 547 37,000  Level Denver Center
Sun 06:34:56 PM 38.6975 -105.8428 76° East 468 539 37,000  Level Denver Center
Sun 06:35:56 PM 38.7297 -105.6775 76° East 468 539 37,000  Level Denver Center
Sun 06:36:56 PM 38.7619 -105.5147 76° East 473 544 37,000  Level Denver Center
Sun 06:37:56 PM 38.7939 -105.3517 75° East 473 544 37,000  Level Denver Center
Sun 06:38:56 PM 38.8294 -105.1753 77° East 473 544 37,000  Level Denver Center
Sun 06:39:56 PM 38.8589 -105.0094 74° East 472 543 37,000  Level Denver Center
Sun 06:40:56 PM 38.8942 -104.8458 76° East 472 543 37,000  Level Denver Center
Sun 06:41:56 PM 38.9250 -104.6850 76° East 467 537 37,000  Level Denver Center
Sun 06:42:56 PM 38.9578 -104.5186 77° East 473 544 37,000  Level Denver Center
Sun 06:43:56 PM 38.9881 -104.3494 76° East 473 544 37,000  Level Denver Center
Sun 06:44:56 PM 39.0183 -104.1883 77° East 470 541 37,000  Level Denver Center
Sun 06:45:56 PM 39.0483 -104.0189 76° East 475 547 37,000  Level Denver Center
Sun 06:46:56 PM 39.0803 -103.8572 77° East 467 537 37,000  Level Denver Center
Sun 06:47:56 PM 39.1097 -103.6956 77° East 462 532 37,000  Level Denver Center
Sun 06:48:56 PM 39.1389 -103.5311 76° East 467 537 37,000  Level Denver Center
Sun 06:49:56 PM 39.1700 -103.3636 78° East 467 537 37,000  Level Denver Center
Sun 06:50:56 PM 39.1969 -103.2017 76° East 473 544 37,000  Level Denver Center
Sun 06:51:56 PM 39.2294 -103.0367 78° East 473 544 37,000  Level Denver Center
Sun 06:52:56 PM 39.2542 -102.8878 78° East 473 544 37,000  Level Denver Center
Sun 06:53:56 PM 39.2822 -102.7228 78° East 473 544 37,000  Level Denver Center
Sun 06:54:56 PM 39.3117 -102.5414 77° East 469 540 37,000  Level Denver Center
Sun 06:55:56 PM 39.3414 -102.3786 78° East 469 540 37,000  Level Denver Center
Sun 06:56:56 PM 39.3686 -102.2078 79° East 478 550 37,000  Level Denver Center
Sun 06:57:56 PM 39.3919 -102.0558 79° East 471 542 37,000  Level Denver Center
Sun 06:58:56 PM 39.4203 -101.8736 77° East 468 539 37,000  Level Denver Center
Sun 06:59:56 PM 39.4492 -101.7131 78° East 468 539 37,000  Level Denver Center
Sun 07:00:56 PM 39.4742 -101.5606 79° East 473 544 37,000  Level Denver Center
Sun 07:01:56 PM 39.4983 -101.3975 78° East 468 539 37,000  Level Denver Center
Sun 07:02:56 PM 39.5275 -101.2147 78° East 468 539 37,000  Level Denver Center
Sun 07:03:56 PM 39.5533 -101.0539 78° East 461 531 37,000  Level Denver Center
Sun 07:04:56 PM 39.5775 -100.9008 79° East 466 536 37,000  Level Denver Center
Sun 07:05:56 PM 39.6058 -100.7181 79° East 473 544 37,000  Level Denver Center
Sun 07:06:56 PM 39.6311 -100.5542 79° East 473 544 37,000  Level Denver Center
Sun 07:07:56 PM 39.6558 -100.3900 79° East 468 539 37,000  Level Denver Center
Sun 07:08:56 PM 39.6769 -100.2422 78° East 462 532 37,000  Level Denver Center
Sun 07:09:56 PM 39.7067 -100.0586 80° East 468 539 37,000  Level Denver Center
Sun 07:10:56 PM 39.7225 -99.9356 80° East 453 521 37,000  Level Denver Center
Sun 07:12:57 PM 39.7728 -99.5672 78° East 472 543 37,000  Level Minneapolis Center
Sun 07:13:57 PM 39.7986 -99.4025 80° East 472 543 37,000  Level Minneapolis Center
Sun 07:14:57 PM 39.8225 -99.2319 81° East 472 543 37,000  Level Minneapolis Center
Sun 07:15:57 PM 39.8436 -99.0664 80° East 472 543 37,000  Level Minneapolis Center
Sun 07:16:56 PM 39.8669 -98.8983 80° East 472 543 37,000  Level Minneapolis Center
Sun 07:17:57 PM 39.8897 -98.7331 80° East 467 537 37,000  Level Minneapolis Center
Sun 07:18:57 PM 39.9122 -98.5675 80° East 462 532 37,000  Level Minneapolis Center
Sun 07:19:56 PM 39.9344 -98.4017 80° East 462 532 37,000  Level Minneapolis Center
Sun 07:20:57 PM 39.9564 -98.2358 80° East 462 532 37,000  Level Minneapolis Center
Sun 07:21:56 PM 39.9783 -98.0672 80° East 462 532 37,000  Level Minneapolis Center
Sun 07:22:57 PM 40.0000 -97.9011 82° East 462 532 37,000  Level Minneapolis Center
Sun 07:23:57 PM 40.0192 -97.7319 80° East 467 537 37,000  Level Minneapolis Center
Sun 07:24:57 PM 40.0425 -97.5631 81° East 467 537 37,000  Level Minneapolis Center
Sun 07:25:57 PM 40.0633 -97.3939 84° East 467 537 37,000  Level Minneapolis Center
Sun 07:26:56 PM 40.0750 -97.2431 80° East 461 531 37,000  Level Minneapolis Center
Sun 07:27:56 PM 40.0972 -97.0767 80° East 467 537 37,000  Level Minneapolis Center
Sun 07:28:57 PM 40.1194 -96.9100 83° East 467 537 37,000  Level Minneapolis Center
Sun 07:29:57 PM 40.1350 -96.7375 80° East 467 537 37,000  Level Minneapolis Center
Sun 07:30:57 PM 40.1567 -96.5706 81° East 467 537 37,000  Level Minneapolis Center
Sun 07:31:57 PM 40.1758 -96.4033 81° East 467 537 37,000  Level Minneapolis Center
Sun 07:32:56 PM 40.1950 -96.2361 78° East 462 532 37,000  Level Minneapolis Center
Sun 07:33:56 PM 40.2217 -96.0772 78° East 462 532 37,000  Level Minneapolis Center
Sun 07:34:57 PM 40.2483 -95.9183 77° East 455 524 37,000  Level Minneapolis Center
Sun 07:35:56 PM 40.2769 -95.7511 78° East 450 518 37,000  Level Minneapolis Center
Sun 07:36:57 PM 40.3031 -95.5947 77° East 445 512 37,000  Level Minneapolis Center
Sun 07:37:57 PM 40.3311 -95.4325 78° East 451 519 37,000  Level Minneapolis Center
Sun 07:38:56 PM 40.3592 -95.2650 77° East 456 525 37,000  Level Minneapolis Center
Sun 07:39:57 PM 40.3889 -95.1000 79° East 462 532 37,000  Level Minneapolis Center
Sun 07:40:57 PM 40.4142 -94.9292 77° East 468 539 37,000  Level Minneapolis Center
Sun 07:41:57 PM 40.4433 -94.7611 78° East 468 539 37,000  Level Minneapolis Center
Sun 07:42:57 PM 40.4703 -94.5903 78° East 468 539 37,000  Level Minneapolis Center
Sun 07:43:57 PM 40.4992 -94.4028 77° East 468 539 37,000  Level Minneapolis Center
Sun 07:44:56 PM 40.5275 -94.2344 78° East 468 539 37,000  Level Minneapolis Center
Sun 07:45:57 PM 40.5556 -94.0631 77° East 468 539 37,000  Level Minneapolis Center
Sun 07:46:56 PM 40.5833 -93.9025 80° East 462 532 37,000  Level Minneapolis Center
Sun 07:48:39 PM 40.6189 -93.6394 78° East 461 531 37,000  Level Chicago Center
Sun 07:49:39 PM 40.6433 -93.4822 78° East 450 518 37,000  Level Chicago Center
Sun 07:50:39 PM 40.6700 -93.3225 79° East 445 512 37,000  Level Chicago Center
Sun 07:51:39 PM 40.6944 -93.1594 80° East 445 512 37,000  Level Chicago Center
Sun 07:52:39 PM 40.7164 -92.9964 78° East 445 512 37,000  Level Chicago Center
Sun 07:53:39 PM 40.7425 -92.8306 79° East 451 519 37,000  Level Chicago Center
Sun 07:54:39 PM 40.7661 -92.6619 79° East 451 519 37,000  Level Chicago Center
Sun 07:55:39 PM 40.7897 -92.4956 81° East 456 525 37,000  Level Chicago Center
Sun 07:56:39 PM 40.8108 -92.3267 79° East 461 531 37,000  Level Chicago Center
Sun 07:57:39 PM 40.8336 -92.1658 80° East 461 531 37,000  Level Chicago Center
Sun 07:58:39 PM 40.8564 -91.9992 80° East 461 531 37,000  Level Chicago Center
Sun 07:59:39 PM 40.8789 -91.8353 81° East 466 536 37,000  Level Chicago Center
Sun 08:00:39 PM 40.8992 -91.6683 80° East 461 531 37,000  Level Chicago Center
Sun 08:01:39 PM 40.9211 -91.5017 81° East 461 531 37,000  Level Chicago Center
Sun 08:02:39 PM 40.9408 -91.3319 77° East 467 537 37,000  Level Chicago Center
Sun 08:03:39 PM 40.9686 -91.1703 81° East 462 532 37,000  Level Chicago Center
Sun 08:04:39 PM 40.9878 -91.0003 79° East 462 532 37,000  Level Chicago Center
Sun 08:05:39 PM 41.0111 -90.8331 81° East 467 537 37,000  Level Chicago Center
Sun 08:06:39 PM 41.0319 -90.6628 81° East 467 537 37,000  Level Chicago Center
Sun 08:07:39 PM 41.0525 -90.4897 80° East 467 537 37,000  Level Chicago Center
Sun 08:08:39 PM 41.0747 -90.3222 81° East 467 537 37,000  Level Chicago Center
Sun 08:09:39 PM 41.0950 -90.1517 80° East 467 537 37,000  Level Chicago Center
Sun 08:10:39 PM 41.1169 -89.9811 82° East 467 537 37,000  Level Chicago Center
Sun 08:11:39 PM 41.1344 -89.8131 81° East 467 537 37,000  Level Chicago Center
Sun 08:12:39 PM 41.1558 -89.6394 72° East 467 537 37,000  Level Chicago Center
Sun 08:13:39 PM 41.1978 -89.4631 68° East 462 532 37,000 -250 Level Chicago Center
Sun 08:14:39 PM 41.2458 -89.3058 68° East 456 525 36,500 -700 Descending Chicago Center
Sun 08:15:39 PM 41.2872 -89.1703 67° East 456 525 35,600 -750 Descending Chicago Center
Sun 08:16:39 PM 41.3369 -89.0153 70° East 449 517 35,000 -600 Descending Chicago Center
Sun 08:17:39 PM 41.3803 -88.8572 78° East 449 517 34,400 -800 Descending Chicago Center
Sun 08:18:39 PM 41.4064 -88.6967 77° East 449 517 33,400 -700 Descending Chicago Center
Sun 08:19:39 PM 41.4344 -88.5300 78° East 444 511 33,000 -200 Descending Chicago Center
Sun 08:20:39 PM 41.4603 -88.3664 77° East 449 517 33,000  Level Chicago Center
Sun 08:21:39 PM 41.4900 -88.1911 79° East 449 517 33,000  Level Chicago Center
Sun 08:22:39 PM 41.5131 -88.0244 77° East 449 517 33,000  Level Chicago Center
Sun 08:23:39 PM 41.5403 -87.8603 78° East 449 517 33,000  Level Chicago Center
Sun 08:24:39 PM 41.5672 -87.6931 79° East 449 517 33,000  Level Chicago Center
Sun 08:25:39 PM 41.5919 -87.5286 79° East 449 517 33,000  Level Chicago Center
Sun 08:26:39 PM 41.6161 -87.3639 79° East 449 517 33,000  Level Chicago Center
Sun 08:27:39 PM 41.6403 -87.2022 78° East 449 517 33,000  Level Chicago Center
Sun 08:28:39 PM 41.6664 -87.0344 78° East 449 517 33,000 -50 Level Chicago Center
Sun 08:29:39 PM 41.6919 -86.8667 78° East 449 517 32,900 -550 Descending Chicago Center
Sun 08:30:39 PM 41.7175 -86.7044 80° East 449 517 31,900 -900 Descending Chicago Center
Sun 08:31:39 PM 41.7369 -86.5561 80° East 455 524 31,100 -900 Descending Chicago Center
Sun 08:32:39 PM 41.7597 -86.3881 76° East 450 518 30,100 -1,000 Descending Chicago Center
Sun 08:33:39 PM 41.7889 -86.2278 76° East 450 518 29,100 -1,350 Descending Chicago Center
Sun 08:34:39 PM 41.8178 -86.0675 74° East 445 512 27,400 -2,250 Descending Chicago Center
Sun 08:35:39 PM 41.8544 -85.8928 76° East 439 505 24,600 -2,500 Descending Chicago Center
Sun 08:36:39 PM 41.8831 -85.7378 76° East 429 494 22,400 -1,546 Descending Chicago Center
Sun 08:38:53 PM 41.9433 -85.4219 77° East 402 463 19,600 -990 Descending Cleveland Center
Sun 08:39:53 PM 41.9681 -85.2811 76° East 390 449 19,200 -300 Descending Cleveland Center
Sun 08:40:53 PM 41.9944 -85.1406 75° East 390 449 19,000 -100 Descending Cleveland Center
Sun 08:41:53 PM 42.0206 -85.0056 78° East 382 440 19,000  Level Cleveland Center
Sun 08:42:53 PM 42.0428 -84.8644 103° East 382 440 19,000 -400 Level Cleveland Center
Sun 08:43:53 PM 42.0186 -84.7258 111° Southeast 382 440 18,200 -900 Descending Cleveland Center
Sun 08:44:53 PM 41.9797 -84.5892 109° East 384 442 17,200 -900 Descending Cleveland Center
Sun 08:45:53 PM 41.9483 -84.4669 112° Southeast 391 450 16,400 -1,150 Descending Cleveland Center
Sun 08:46:53 PM 41.9108 -84.3447 111° Southeast 369 425 14,900 -1,429 Descending Cleveland Center
Sun 08:47:59 PM 41.8753 -84.2197 110° East 304 350 13,400 -1,450 Descending Cleveland Center
Sun 08:48:53 PM 41.8508 -84.1292 104° East 286 329 12,000 -789 Descending Cleveland Center
Sun 08:49:53 PM 41.8347 -84.0419 58° Northeast 271 312 11,900 -700 Descending Cleveland Center
Sun 08:50:53 PM 41.8747 -83.9575 55° Northeast 248 285 10,600 -1,300 Descending Cleveland Center
Sun 08:51:53 PM 41.9192 -83.8706 69° East 248 285 9,300 -1,424 Descending Cleveland Center
Sun 08:52:51 PM 41.9422 -83.7881 69° East 254 292 7,800 -1,434 Descending Cleveland Center
Sun 08:53:46 PM 41.9653 -83.7056 69° East 255 293 6,600 -1,357 Descending Cleveland Center
Sun 08:54:46 PM 41.9908 -83.6144 71° East 249 287 5,200 -893 Descending Cleveland Center
Sun 08:55:47 PM 42.0117 -83.5344 37° Northeast 210 242 4,800 -661 Descending Cleveland Center
Sun 08:56:53 PM 42.0567 -83.4889 27° Northeast 187 215 3,800 -885 Descending Cleveland Center
Sun 08:57:49 PM 42.0947 -83.4628 27° Northeast 161 185 3,000 -829 Descending Cleveland Center
Sun 08:58:56 PM 42.1372 -83.4339 31° Northeast 157 181 2,100 -850 Descending Cleveland Center
Sun 08:59:56 PM 42.1733 -83.4047 31° Northeast 144 166 1,200 -900 Descending Cleveland Center

Login

Don't have an account? Register now (free) for customized features, flight alerts, and more!